createdAt,value
2023-05-14T00:01:27.092Z,11.76
2023-05-14T00:03:57.823Z,11.78
2023-05-14T00:06:28.644Z,11.79
2023-05-14T00:08:59.432Z,11.80
2023-05-14T00:11:30.089Z,11.80
2023-05-14T00:14:00.691Z,11.85
2023-05-14T00:16:31.498Z,11.84
2023-05-14T00:19:02.310Z,11.85
2023-05-14T00:21:33.044Z,11.83
2023-05-14T00:24:03.859Z,11.82
2023-05-14T00:26:34.536Z,11.85
2023-05-14T00:29:05.206Z,11.86
2023-05-14T00:31:35.879Z,11.88
2023-05-14T00:34:06.571Z,11.92
2023-05-14T00:36:37.233Z,11.92
2023-05-14T00:39:08.050Z,11.92
2023-05-14T00:41:38.686Z,11.86
2023-05-14T00:44:12.003Z,11.81
2023-05-14T00:46:42.859Z,11.77
2023-05-14T00:49:13.864Z,11.77
2023-05-14T00:51:43.057Z,11.78
2023-05-14T00:54:14.283Z,11.75
2023-05-14T00:56:45.420Z,11.76
2023-05-14T00:59:16.085Z,11.78
2023-05-14T01:01:46.686Z,11.79
2023-05-14T01:04:17.782Z,11.80
2023-05-14T01:06:50.749Z,11.75
2023-05-14T01:09:26.460Z,11.61
2023-05-14T01:12:05.217Z,11.56
2023-05-14T01:14:42.823Z,11.54
2023-05-14T01:17:15.966Z,11.56
2023-05-14T01:19:47.465Z,11.52
2023-05-14T01:22:18.087Z,11.38
2023-05-14T01:24:48.827Z,11.28
2023-05-14T01:27:25.650Z,11.18
2023-05-14T01:30:09.912Z,11.11
2023-05-14T01:32:41.786Z,11.10
2023-05-14T01:35:13.210Z,11.10
2023-05-14T01:37:45.897Z,11.08
2023-05-14T01:40:17.301Z,11.10
2023-05-14T01:42:48.136Z,11.11
2023-05-14T01:45:19.968Z,11.09
2023-05-14T01:47:50.661Z,11.06
2023-05-14T01:50:21.648Z,11.02
2023-05-14T01:52:50.741Z,10.96
2023-05-14T01:55:21.756Z,10.90
2023-05-14T01:57:50.909Z,10.88
2023-05-14T02:00:23.933Z,10.84
2023-05-14T02:02:54.935Z,10.81
2023-05-14T02:05:25.996Z,10.77
2023-05-14T02:07:56.687Z,10.71
2023-05-14T02:10:27.434Z,10.64
2023-05-14T02:12:58.030Z,10.61
2023-05-14T02:15:28.691Z,10.65
2023-05-14T02:17:59.365Z,10.69
2023-05-14T02:20:30.076Z,10.70
2023-05-14T02:23:00.702Z,10.70
2023-05-14T02:25:31.335Z,10.71
2023-05-14T02:28:02.001Z,10.72
2023-05-14T02:30:32.695Z,10.69
2023-05-14T02:33:03.559Z,10.65
2023-05-14T02:35:34.287Z,10.67
2023-05-14T02:38:05.316Z,10.70
2023-05-14T02:40:36.673Z,10.71
2023-05-14T02:43:07.291Z,10.72
2023-05-14T02:45:38.410Z,10.74
2023-05-14T02:48:09.325Z,10.77
2023-05-14T02:50:40.080Z,10.79
2023-05-14T02:53:10.725Z,10.81
2023-05-14T02:55:41.906Z,10.82
2023-05-14T02:58:12.919Z,10.82
2023-05-14T03:00:41.997Z,10.81
2023-05-14T03:03:13.066Z,10.73
2023-05-14T03:05:44.412Z,10.69
2023-05-14T03:08:15.070Z,10.68
2023-05-14T03:10:45.702Z,10.68
2023-05-14T03:13:16.332Z,10.70
2023-05-14T03:15:47.502Z,10.80
2023-05-14T03:18:18.089Z,10.92
2023-05-14T03:20:48.885Z,10.98
2023-05-14T03:23:19.577Z,10.97
2023-05-14T03:25:50.184Z,11.00
2023-05-14T03:28:20.795Z,11.00
2023-05-14T03:30:51.560Z,10.97
2023-05-14T03:33:22.724Z,10.98
2023-05-14T03:35:53.399Z,10.99
2023-05-14T03:38:24.433Z,10.99
2023-05-14T03:40:53.523Z,10.99
2023-05-14T03:43:24.113Z,11.00
2023-05-14T03:45:54.686Z,11.01
2023-05-14T03:48:25.478Z,11.06
2023-05-14T03:50:54.680Z,11.09
2023-05-14T03:53:25.318Z,11.14
2023-05-14T03:55:56.016Z,11.20
2023-05-14T03:58:27.317Z,11.27
2023-05-14T04:00:58.014Z,11.34
2023-05-14T04:03:28.969Z,11.42
2023-05-14T04:05:58.093Z,11.49
2023-05-14T04:08:28.805Z,11.54
2023-05-14T04:10:59.463Z,11.61
2023-05-14T04:13:30.045Z,11.66
2023-05-14T04:16:00.721Z,11.69
2023-05-14T04:18:31.370Z,11.75
2023-05-14T04:21:02.213Z,11.81
2023-05-14T04:23:32.894Z,11.80
2023-05-14T04:26:03.823Z,11.81
2023-05-14T04:28:34.255Z,11.86
2023-05-14T04:31:05.115Z,11.89
2023-05-14T04:33:35.713Z,11.90
2023-05-14T04:36:07.316Z,11.92
2023-05-14T04:38:37.976Z,11.97
2023-05-14T04:41:08.636Z,11.99
2023-05-14T04:43:39.491Z,12.03
2023-05-14T04:46:10.150Z,12.09
2023-05-14T04:48:40.804Z,12.13
2023-05-14T04:51:11.728Z,12.14
2023-05-14T04:53:40.799Z,12.17
2023-05-14T04:56:11.453Z,12.20
2023-05-14T04:58:42.150Z,12.21
2023-05-14T05:01:12.787Z,12.27
2023-05-14T05:03:43.755Z,12.38
2023-05-14T05:06:14.366Z,12.51
2023-05-14T05:08:44.965Z,12.62
2023-05-14T05:11:15.576Z,12.70
2023-05-14T05:13:46.232Z,12.80
2023-05-14T05:16:16.921Z,12.89
2023-05-14T05:18:47.718Z,12.99
2023-05-14T05:21:18.363Z,13.07
2023-05-14T05:23:49.017Z,13.18
2023-05-14T05:26:19.637Z,13.24
2023-05-14T05:28:50.275Z,13.29
2023-05-14T05:31:21.528Z,13.33
2023-05-14T05:33:52.260Z,13.37
2023-05-14T05:36:22.966Z,13.38
2023-05-14T05:38:53.652Z,13.42
2023-05-14T05:41:24.340Z,13.48
2023-05-14T05:43:54.996Z,13.54
2023-05-14T05:46:25.852Z,13.65
2023-05-14T05:48:55.027Z,13.80
2023-05-14T05:51:25.705Z,13.97
2023-05-14T05:53:56.383Z,14.12
2023-05-14T05:56:26.954Z,14.23
2023-05-14T05:58:57.586Z,14.41
2023-05-14T06:01:28.317Z,14.57
2023-05-14T06:03:59.045Z,14.70
2023-05-14T06:06:30.148Z,14.87
2023-05-14T06:09:01.123Z,15.02
2023-05-14T06:11:30.200Z,15.16
2023-05-14T06:14:00.917Z,15.32
2023-05-14T06:16:31.941Z,15.48
2023-05-14T06:19:02.670Z,15.70
2023-05-14T06:21:33.639Z,15.93
2023-05-14T06:24:04.558Z,16.14
2023-05-14T06:26:33.610Z,16.33
2023-05-14T06:29:04.254Z,16.47
2023-05-14T06:31:36.309Z,16.68
2023-05-14T06:34:08.614Z,16.99
2023-05-14T06:36:39.258Z,17.34
2023-05-14T06:39:09.903Z,17.72
2023-05-14T06:41:40.520Z,18.02
2023-05-14T06:44:11.214Z,18.29
2023-05-14T06:46:40.421Z,18.46
2023-05-14T06:49:11.095Z,18.59
2023-05-14T06:52:12.821Z,18.76
2023-05-14T06:54:33.569Z,19.02
2023-05-14T06:57:03.017Z,19.10
2023-05-14T06:59:33.623Z,19.10
2023-05-14T07:02:04.214Z,19.22
2023-05-14T07:04:33.314Z,19.40
2023-05-14T07:07:04.251Z,19.55
2023-05-14T07:09:34.984Z,19.57
2023-05-14T07:12:07.394Z,19.47
2023-05-14T07:14:38.054Z,19.52
2023-05-14T07:17:07.433Z,19.57
2023-05-14T07:19:38.089Z,19.53
2023-05-14T07:22:07.235Z,19.42
2023-05-14T07:24:37.995Z,19.37
2023-05-14T07:27:09.074Z,19.47
2023-05-14T07:29:39.684Z,19.59
2023-05-14T07:32:10.782Z,19.72
2023-05-14T07:34:42.633Z,19.85
2023-05-14T07:37:13.410Z,19.96
2023-05-14T07:39:44.110Z,20.06
2023-05-14T07:42:31.800Z,20.16
2023-05-14T07:45:06.472Z,20.14
2023-05-14T07:47:37.512Z,20.08
2023-05-14T07:50:10.635Z,20.06
2023-05-14T07:52:41.271Z,20.14
2023-05-14T07:55:12.584Z,20.28
2023-05-14T07:57:43.294Z,20.39
2023-05-14T08:00:13.398Z,20.50
2023-05-14T08:02:47.174Z,20.64
2023-05-14T08:05:20.440Z,20.74
2023-05-14T08:07:51.151Z,20.84
2023-05-14T08:10:20.309Z,20.96
2023-05-14T08:12:51.157Z,21.05
2023-05-14T08:15:22.062Z,21.20
2023-05-14T08:17:52.743Z,21.39
2023-05-14T08:20:23.946Z,21.69
2023-05-14T08:22:54.668Z,22.06
2023-05-14T08:25:25.386Z,22.39
2023-05-14T08:27:56.106Z,22.65
2023-05-14T08:30:27.211Z,22.79
2023-05-14T08:32:58.520Z,22.95
2023-05-14T08:35:29.181Z,23.03
2023-05-14T08:37:59.843Z,23.15
2023-05-14T08:40:30.659Z,23.26
2023-05-14T08:43:02.576Z,23.22
2023-05-14T08:45:35.329Z,23.22
2023-05-14T08:48:10.944Z,23.05
2023-05-14T08:50:41.852Z,22.98
2023-05-14T08:53:12.888Z,22.92
2023-05-14T08:55:45.856Z,22.94
2023-05-14T08:58:16.587Z,23.10
2023-05-14T09:00:47.577Z,23.31
2023-05-14T09:03:19.249Z,23.48
2023-05-14T09:05:51.081Z,23.61
2023-05-14T09:08:22.541Z,23.72
2023-05-14T09:10:53.170Z,23.78
2023-05-14T09:13:25.315Z,23.88
2023-05-14T09:15:57.567Z,23.93
2023-05-14T09:18:28.370Z,23.93
2023-05-14T09:20:59.157Z,23.96
2023-05-14T09:23:33.668Z,24.07
2023-05-14T09:26:06.995Z,24.03
2023-05-14T09:28:39.397Z,24.04
2023-05-14T09:31:10.587Z,23.84
2023-05-14T09:33:41.263Z,23.61
2023-05-14T09:36:11.866Z,23.54
2023-05-14T09:38:42.618Z,23.67
2023-05-14T09:41:13.364Z,23.82
2023-05-14T09:43:44.256Z,23.92
2023-05-14T09:46:14.841Z,23.80
2023-05-14T09:48:46.871Z,23.82
2023-05-14T09:51:18.207Z,23.87
2023-05-14T09:53:49.984Z,23.75
2023-05-14T09:56:20.658Z,23.46
2023-05-14T09:58:51.394Z,23.37
2023-05-14T10:01:24.029Z,23.36
2023-05-14T10:03:55.608Z,23.34
2023-05-14T10:06:28.126Z,23.35
2023-05-14T10:09:03.160Z,23.23
2023-05-14T10:11:37.380Z,23.20
2023-05-14T10:14:13.273Z,23.18
2023-05-14T10:16:47.186Z,22.97
2023-05-14T10:19:20.569Z,22.77
2023-05-14T10:21:56.211Z,22.67
2023-05-14T10:24:27.817Z,22.30
2023-05-14T10:26:58.523Z,22.27
2023-05-14T10:29:35.855Z,22.29
2023-05-14T10:32:09.428Z,22.32
2023-05-14T10:34:42.248Z,22.29
2023-05-14T10:37:14.115Z,22.28
2023-05-14T10:39:50.359Z,22.22
2023-05-14T10:42:22.755Z,22.22
2023-05-14T10:44:55.610Z,22.20
2023-05-14T10:47:28.015Z,22.24
2023-05-14T10:50:00.159Z,22.25
2023-05-14T10:52:31.763Z,22.22
2023-05-14T10:55:04.844Z,22.16
2023-05-14T10:57:37.676Z,22.14
2023-05-14T11:00:11.063Z,22.33
2023-05-14T11:02:43.471Z,22.58
2023-05-14T11:05:16.288Z,22.73
2023-05-14T11:07:48.735Z,22.80
2023-05-14T11:10:20.994Z,23.04
2023-05-14T11:12:52.457Z,23.40
2023-05-14T11:15:25.476Z,23.52
2023-05-14T11:17:56.454Z,23.43
2023-05-14T11:20:27.351Z,23.54
2023-05-14T11:22:58.008Z,23.62
2023-05-14T11:25:28.867Z,23.88
2023-05-14T11:27:59.684Z,24.06
2023-05-14T11:30:32.850Z,24.09
2023-05-14T11:33:03.720Z,23.97
2023-05-14T11:35:37.540Z,23.87
2023-05-14T11:38:13.389Z,23.78
2023-05-14T11:40:51.205Z,23.68
2023-05-14T11:43:22.004Z,23.55
2023-05-14T11:45:55.768Z,23.33
2023-05-14T11:48:26.468Z,23.38
2023-05-14T11:50:57.484Z,23.58
2023-05-14T11:53:29.586Z,23.89
2023-05-14T11:56:00.412Z,23.95
2023-05-14T11:58:33.860Z,23.87
2023-05-14T12:01:04.728Z,23.59
2023-05-14T12:03:36.525Z,23.38
2023-05-14T12:06:09.650Z,23.36
2023-05-14T12:08:40.313Z,23.52
2023-05-14T12:11:11.053Z,23.60
2023-05-14T12:13:41.831Z,23.64
2023-05-14T12:16:12.896Z,23.71
2023-05-14T12:18:44.295Z,23.70
2023-05-14T12:21:15.022Z,23.69
2023-05-14T12:23:45.627Z,23.79
2023-05-14T12:26:16.198Z,23.95
2023-05-14T12:28:49.124Z,24.14
2023-05-14T12:31:27.538Z,24.21
2023-05-14T12:33:58.424Z,24.27
2023-05-14T12:36:29.129Z,24.30
2023-05-14T12:39:03.352Z,24.29
2023-05-14T12:41:34.589Z,24.27
2023-05-14T12:44:25.628Z,24.22
2023-05-14T12:46:56.482Z,24.12
2023-05-14T12:49:27.152Z,24.04
2023-05-14T12:52:25.633Z,23.95
2023-05-14T12:54:58.730Z,23.99
2023-05-14T12:57:29.561Z,23.96
2023-05-14T13:00:00.382Z,23.88
2023-05-14T13:02:31.439Z,23.81
2023-05-14T13:05:02.142Z,23.89
2023-05-14T13:07:32.812Z,24.01
2023-05-14T13:10:03.739Z,23.95
2023-05-14T13:12:34.533Z,23.75
2023-05-14T13:15:08.048Z,23.77
2023-05-14T13:17:38.890Z,23.87
2023-05-14T13:20:11.390Z,24.01
2023-05-14T13:22:42.161Z,23.94
2023-05-14T13:25:13.084Z,23.90
2023-05-14T13:27:43.822Z,24.04
2023-05-14T13:30:15.405Z,24.13
2023-05-14T13:32:46.278Z,24.13
2023-05-14T13:35:17.252Z,24.18
2023-05-14T13:37:48.746Z,24.23
2023-05-14T13:40:19.489Z,24.42
2023-05-14T13:42:50.392Z,24.54
2023-05-14T13:45:21.298Z,24.56
2023-05-14T13:47:52.169Z,24.48
2023-05-14T13:50:22.886Z,24.28
2023-05-14T13:52:53.542Z,23.96
2023-05-14T13:55:24.425Z,23.82
2023-05-14T13:57:58.244Z,24.06
2023-05-14T14:00:28.925Z,24.29
2023-05-14T14:02:59.627Z,24.44
2023-05-14T14:05:30.377Z,24.45
2023-05-14T14:08:08.208Z,24.30
2023-05-14T14:10:51.690Z,24.15
2023-05-14T14:13:22.664Z,24.07
2023-05-14T14:15:54.017Z,23.98
2023-05-14T14:18:24.792Z,23.91
2023-05-14T14:20:55.468Z,23.73
2023-05-14T14:23:26.121Z,23.62
2023-05-14T14:25:57.359Z,23.54
2023-05-14T14:28:28.050Z,23.52
2023-05-14T14:30:58.693Z,23.44
2023-05-14T14:33:29.421Z,23.46
2023-05-14T14:36:02.658Z,23.59
2023-05-14T14:38:33.397Z,23.62
2023-05-14T14:41:04.033Z,23.60
2023-05-14T14:43:35.269Z,23.57
2023-05-14T14:46:06.455Z,23.51
2023-05-14T14:48:38.026Z,23.49
2023-05-14T14:51:09.604Z,23.48
2023-05-14T14:53:40.238Z,23.44
2023-05-14T14:56:10.955Z,23.35
2023-05-14T14:58:41.659Z,23.29
2023-05-14T15:01:12.399Z,23.25
2023-05-14T15:03:43.158Z,23.23
2023-05-14T15:06:14.051Z,23.19
2023-05-14T15:08:44.692Z,23.18
2023-05-14T15:11:15.394Z,23.18
2023-05-14T15:13:46.077Z,23.13
2023-05-14T15:16:16.822Z,23.11
2023-05-14T15:18:47.623Z,23.05
2023-05-14T15:21:18.525Z,22.95
2023-05-14T15:23:49.214Z,22.90
2023-05-14T15:26:20.529Z,22.92
2023-05-14T15:28:51.243Z,22.87
2023-05-14T15:31:21.911Z,22.76
2023-05-14T15:33:53.097Z,22.65
2023-05-14T15:36:23.918Z,22.59
2023-05-14T15:38:54.603Z,22.49
2023-05-14T15:41:26.238Z,22.40
2023-05-14T15:43:57.013Z,22.34
2023-05-14T15:46:27.712Z,22.33
2023-05-14T15:48:59.230Z,22.25
2023-05-14T15:51:30.362Z,22.21
2023-05-14T15:54:01.030Z,22.19
2023-05-14T15:56:31.937Z,22.07
2023-05-14T15:59:02.666Z,21.99
2023-05-14T16:01:33.332Z,21.95
2023-05-14T16:04:04.340Z,21.92
2023-05-14T16:06:35.145Z,21.92
2023-05-14T16:09:05.721Z,21.92
2023-05-14T16:11:34.777Z,21.84
2023-05-14T16:14:05.372Z,21.78
2023-05-14T16:16:36.163Z,21.76
2023-05-14T16:19:06.933Z,21.66
2023-05-14T16:21:37.869Z,21.56
2023-05-14T16:24:09.251Z,21.56
2023-05-14T16:26:40.068Z,21.56
2023-05-14T16:29:10.670Z,21.47
2023-05-14T16:31:39.744Z,21.36
2023-05-14T16:34:10.454Z,21.24
2023-05-14T16:36:41.116Z,21.13
2023-05-14T16:39:12.154Z,21.01
2023-05-14T16:42:03.551Z,20.90
2023-05-14T16:44:34.154Z,20.82
2023-05-14T16:47:03.358Z,20.70
2023-05-14T16:49:33.970Z,20.57
2023-05-14T16:52:03.045Z,20.48
2023-05-14T16:54:33.679Z,20.38
2023-05-14T16:57:02.752Z,20.31
2023-05-14T16:59:33.577Z,20.20
2023-05-14T17:02:08.839Z,20.17
2023-05-14T17:04:42.373Z,20.22
2023-05-14T17:07:23.944Z,20.27
2023-05-14T17:09:52.991Z,20.26
2023-05-14T17:12:24.276Z,20.29
2023-05-14T17:14:55.088Z,20.34
2023-05-14T17:17:25.899Z,20.37
2023-05-14T17:19:54.941Z,20.40
2023-05-14T17:22:48.705Z,20.41
2023-05-14T17:25:17.421Z,20.44
2023-05-14T17:27:50.292Z,20.46
2023-05-14T17:30:21.049Z,20.46
2023-05-14T17:32:51.727Z,20.46
2023-05-14T17:35:22.785Z,20.47
2023-05-14T17:37:55.979Z,20.45
2023-05-14T17:40:36.581Z,20.44
2023-05-14T17:43:27.820Z,20.41
2023-05-14T17:45:58.621Z,20.39
2023-05-14T17:48:29.892Z,20.34
2023-05-14T17:51:00.623Z,20.31
2023-05-14T17:53:31.301Z,20.32
2023-05-14T17:56:04.948Z,20.27
2023-05-14T17:58:35.739Z,20.10
2023-05-14T18:01:06.592Z,19.93
2023-05-14T18:03:37.544Z,19.74
2023-05-14T18:06:08.702Z,19.57
2023-05-14T18:08:39.312Z,19.42
2023-05-14T18:11:10.268Z,19.26
2023-05-14T18:13:41.053Z,19.11
2023-05-14T18:16:10.157Z,18.98
2023-05-14T18:18:43.434Z,18.86
2023-05-14T18:21:14.081Z,18.73
2023-05-14T18:23:44.771Z,18.62
2023-05-14T18:26:15.547Z,18.51
2023-05-14T18:28:44.645Z,18.39
2023-05-14T18:31:15.307Z,18.28
2023-05-14T18:33:54.433Z,18.17
2023-05-14T18:36:25.058Z,18.07
2023-05-14T18:39:05.655Z,17.99
2023-05-14T18:41:36.313Z,17.90
2023-05-14T18:44:07.018Z,17.81
2023-05-14T18:46:38.020Z,17.72
2023-05-14T18:49:07.187Z,17.62
2023-05-14T18:51:37.993Z,17.54
2023-05-14T18:54:11.741Z,17.45
2023-05-14T18:56:42.433Z,17.37
2023-05-14T18:59:13.106Z,17.24
2023-05-14T19:01:43.817Z,17.09
2023-05-14T19:04:13.389Z,16.93
2023-05-14T19:06:44.089Z,16.78
2023-05-14T19:09:14.926Z,16.65
2023-05-14T19:11:45.764Z,16.55
2023-05-14T19:14:16.479Z,16.47
2023-05-14T19:16:45.588Z,16.42
2023-05-14T19:19:16.622Z,16.36
2023-05-14T19:21:47.744Z,16.31
2023-05-14T19:24:20.791Z,16.28
2023-05-14T19:26:50.048Z,16.23
2023-05-14T19:29:20.746Z,16.16
2023-05-14T19:31:51.376Z,16.10
2023-05-14T19:34:22.116Z,16.02
2023-05-14T19:36:52.842Z,15.95
2023-05-14T19:39:22.030Z,15.87
2023-05-14T19:41:52.699Z,15.82
2023-05-14T19:44:23.381Z,15.79
2023-05-14T19:46:54.167Z,15.74
2023-05-14T19:49:23.275Z,15.68
2023-05-14T19:51:54.032Z,15.59
2023-05-14T19:54:24.761Z,15.54
2023-05-14T19:56:55.482Z,15.50
2023-05-14T19:59:26.371Z,15.46
2023-05-14T20:01:57.102Z,15.39
2023-05-14T20:04:27.788Z,15.34
2023-05-14T20:06:58.476Z,15.28
2023-05-14T20:09:29.103Z,15.23
2023-05-14T20:12:01.164Z,15.20
2023-05-14T20:14:52.418Z,15.16
2023-05-14T20:17:24.953Z,15.12
2023-05-14T20:19:54.257Z,15.08
2023-05-14T20:22:45.251Z,15.03
2023-05-14T20:25:16.974Z,14.93
2023-05-14T20:27:47.680Z,14.89
2023-05-14T20:30:18.324Z,14.83
2023-05-14T20:32:49.023Z,14.74
2023-05-14T20:35:19.680Z,14.70
2023-05-14T20:37:50.939Z,14.67
2023-05-14T20:40:21.922Z,14.61
2023-05-14T20:42:52.619Z,14.56
2023-05-14T20:45:23.586Z,14.57
2023-05-14T20:47:54.590Z,14.61
2023-05-14T20:50:25.231Z,14.67
2023-05-14T20:52:56.882Z,14.73
2023-05-14T20:55:27.768Z,14.75
2023-05-14T20:57:58.894Z,14.72
2023-05-14T21:00:29.538Z,14.63
2023-05-14T21:03:00.490Z,14.58
2023-05-14T21:05:31.330Z,14.55
2023-05-14T21:08:02.007Z,14.53
2023-05-14T21:10:32.672Z,14.55
2023-05-14T21:13:03.328Z,14.54
2023-05-14T21:15:34.068Z,14.51
2023-05-14T21:18:04.962Z,14.51
2023-05-14T21:20:34.002Z,14.48
2023-05-14T21:23:04.679Z,14.40
2023-05-14T21:25:35.488Z,14.35
2023-05-14T21:28:04.730Z,14.33
2023-05-14T21:30:35.455Z,14.30
2023-05-14T21:33:06.176Z,14.27
2023-05-14T21:35:37.239Z,14.21
2023-05-14T21:38:07.967Z,14.15
2023-05-14T21:40:38.588Z,14.08
2023-05-14T21:43:09.382Z,13.98
2023-05-14T21:45:40.110Z,13.89
2023-05-14T21:48:10.867Z,13.85
2023-05-14T21:50:41.561Z,13.85
2023-05-14T21:53:15.257Z,13.85
2023-05-14T21:55:46.278Z,13.83
2023-05-14T21:58:17.002Z,13.83
2023-05-14T22:00:47.640Z,13.84
2023-05-14T22:03:18.401Z,13.85
2023-05-14T22:05:47.589Z,13.82
2023-05-14T22:08:18.225Z,13.80
2023-05-14T22:10:49.569Z,13.81
2023-05-14T22:13:20.178Z,13.81
2023-05-14T22:15:58.115Z,13.83
2023-05-14T22:18:35.769Z,13.87
2023-05-14T22:21:06.576Z,13.91
2023-05-14T22:23:37.179Z,13.97
2023-05-14T22:26:07.927Z,14.01
2023-05-14T22:28:38.563Z,14.03
2023-05-14T22:31:09.275Z,14.05
2023-05-14T22:33:39.887Z,14.05
2023-05-14T22:36:12.345Z,14.07
2023-05-14T22:38:43.021Z,14.08
2023-05-14T22:41:14.447Z,14.09
2023-05-14T22:43:45.104Z,14.09
2023-05-14T22:46:15.948Z,14.08
2023-05-14T22:48:45.099Z,14.10
2023-05-14T22:51:15.935Z,14.10
2023-05-14T22:53:46.544Z,14.12
2023-05-14T22:56:17.245Z,14.14
2023-05-14T22:58:47.831Z,14.14
2023-05-14T23:01:18.515Z,14.14
2023-05-14T23:03:49.136Z,14.10
2023-05-14T23:06:20.018Z,14.07
2023-05-14T23:08:49.090Z,14.04
2023-05-14T23:11:19.792Z,14.02
2023-05-14T23:13:50.383Z,14.01
2023-05-14T23:16:21.510Z,13.98
2023-05-14T23:18:52.159Z,14.02
2023-05-14T23:21:22.961Z,14.04
2023-05-14T23:23:53.580Z,14.07
2023-05-14T23:26:24.811Z,14.11
2023-05-14T23:28:55.443Z,14.19
2023-05-14T23:31:26.238Z,14.26
2023-05-14T23:33:59.010Z,14.34
2023-05-14T23:36:29.968Z,14.39
2023-05-14T23:38:59.050Z,14.43
2023-05-14T23:41:29.677Z,14.44
2023-05-14T23:44:00.318Z,14.43
2023-05-14T23:46:31.064Z,14.44
2023-05-14T23:49:02.210Z,14.50
2023-05-14T23:51:32.820Z,14.50
2023-05-14T23:54:03.611Z,14.42
2023-05-14T23:56:34.375Z,14.38
2023-05-14T23:59:05.030Z,14.33
